Latest Weather Observations for Charleville

IDQ60801

Issued at 4:32 pm EST Sunday 24 July 2016 (issued every 30 minutes, with the page automatically refreshed every 10 minutes)

About weather observations | Map of weather stations | Latest weather observations for QLD | Other Formats
Station Details ID: 044021 Name: CHARLEVILLE AERO Lat: -26.41 Lon: 146.26 Height: 301.6 m
Data from the previous 72 hours. | See also: Recent months at Charleville
Date/Time
EST
Temp
°C
App
Temp
°C
Dew
Point
°C
Rel
Hum
%
Delta-T
°C
Wind Press
QNH
hPa
Press
MSL
hPa
Rain since
9am
mm
Dir  Spd
km/h
Gust
km/h
Spd
kts
Gust
kts
24/04:30pm 19.5 15.5 3.1 33 7.8 W 13 19 7 10 1015.4 - 0.0
24/04:00pm 19.7 16.0 2.2 31 8.2 W 11 19 6 10 1015.3 - 0.0
24/03:30pm 19.8 14.4 2.5 31 8.1 W 20 28 11 15 1015.4 - 0.0
24/03:00pm 20.7 16.2 2.1 29 8.7 W 15 26 8 14 1015.3 1015.5 0.0
24/02:30pm 20.5 15.3 2.2 29 8.6 W 19 28 10 15 1015.4 - 0.0
24/02:00pm 20.6 16.2 2.7 30 8.5 W 15 24 8 13 1015.6 - 0.0
24/01:30pm 19.9 15.2 3.0 32 8.0 W 17 26 9 14 1015.9 - 0.0
24/01:00pm 19.5 14.7 2.7 32 7.9 WNW 17 28 9 15 1016.3 - 0.0
24/12:30pm 19.1 14.3 2.4 33 7.8 WNW 17 26 9 14 1016.8 - 0.0
24/12:00pm 18.9 14.6 3.1 35 7.5 WNW 15 22 8 12 1017.4 1017.7 0.0
24/11:30am 18.4 15.6 5.2 42 6.5 NW 9 15 5 8 1017.5 - 0.0
24/11:00am 17.5 14.3 5.1 44 6.0 N 11 15 6 8 1017.7 - 0.0
24/10:30am 16.0 12.7 4.3 45 5.6 N 11 15 6 8 1018.4 - 0.0
24/10:00am 15.3 12.0 4.3 48 5.2 NNE 11 15 6 8 1018.3 - 0.0
24/09:30am 14.1 11.0 3.4 48 4.9 NE 9 17 5 9 1018.4 - 0.0
24/09:00am 13.2 10.2 3.9 53 4.3 NNE 9 13 5 7 1018.2 1018.4 0.0
24/08:30am 11.1 9.8 5.9 70 2.5 NE 2 9 1 5 1018.2 - 0.0
24/08:00am 8.3 7.6 6.9 91 0.7 CALM 0 0 0 0 1018.0 - 0.0
24/07:30am 8.0 7.2 6.6 91 0.7 CALM 0 0 0 0 1017.5 - 0.0
24/07:00am 7.0 6.1 6.1 94 0.4 CALM 0 0 0 0 1017.1 - 0.0
24/06:30am 6.8 5.1 5.9 94 0.4 ENE 4 7 2 4 1017.0 - 0.0
24/06:00am 6.7 5.7 5.7 93 0.5 CALM 0 0 0 0 1016.7 1017.0 0.0
24/05:30am 7.1 6.2 6.0 93 0.5 CALM 0 0 0 0 1016.0 - 0.0
24/05:00am 7.3 6.4 6.1 92 0.6 CALM 0 0 0 0 1015.9 - 0.0
24/04:30am 7.7 6.8 6.2 90 0.7 CALM 0 0 0 0 1015.8 - 0.0
24/04:00am 7.7 6.4 5.9 88 0.8 SSE 2 7 1 4 1016.1 - 0.0
24/03:30am 8.0 7.1 6.1 88 0.9 CALM 0 0 0 0 1016.1 - 0.0
24/03:00am 8.7 7.8 6.0 83 1.3 CALM 0 0 0 0 1016.1 1016.4 0.0
24/02:30am 9.6 7.5 5.6 76 1.9 SE 6 7 3 4 1016.2 - 0.0
24/02:00am 10.3 8.0 5.7 73 2.2 SE 7 9 4 5 1016.3 - 0.0
24/01:30am 11.4 7.7 4.5 62 3.2 SE 13 17 7 9 1016.6 - 0.0
24/01:00am 12.1 7.6 4.0 57 3.7 S 17 24 9 13 1017.0 - 0.0
24/12:30am 12.3 7.9 4.5 59 3.6 S 17 22 9 12 1016.8 - 0.0
24/12:00am 12.3 8.8 5.4 63 3.3 S 13 17 7 9 1017.0 1017.3 0.0
 
Date/Time
EST
Temp
°C
App
Temp
°C
Dew
Point
°C
Rel
Hum
%
Delta-T
°C
Wind Press
QNH
hPa
Press
MSL
hPa
Rain since
9am
mm
Dir  Spd
km/h
Gust
km/h
Spd
kts
Gust
kts
23/11:30pm 12.2 9.2 5.9 65 3.0 SSW 11 15 6 8 1016.8 - 0.0
23/11:00pm 11.7 8.9 7.1 73 2.2 SSW 11 13 6 7 1016.9 - 0.0
23/10:30pm 11.7 9.6 8.2 79 1.7 SSW 9 11 5 6 1016.7 - 0.0
23/10:00pm 12.4 10.0 6.9 69 2.7 SSW 9 11 5 6 1016.4 - 0.0
23/09:30pm 12.8 10.9 7.5 70 2.6 S 7 7 4 4 1016.1 - 0.0
23/09:00pm 14.0 11.9 6.8 62 3.5 S 7 9 4 5 1016.2 1016.5 0.0
23/08:30pm 14.8 12.3 6.6 58 4.0 S 9 13 5 7 1016.3 - 0.0
23/08:00pm 15.8 12.9 6.3 53 4.7 SSW 11 15 6 8 1016.3 - 0.0
23/07:30pm 16.5 13.5 6.2 50 5.1 SSW 11 15 6 8 1015.8 - 0.0
23/07:00pm 16.3 14.2 8.2 58 4.2 SSW 9 11 5 6 1015.5 - 0.0
23/06:30pm 16.7 15.3 9.5 62 3.8 SW 7 9 4 5 1015.2 - 0.0
23/06:00pm 17.7 16.7 8.9 56 4.6 WSW 4 7 2 4 1015.1 1015.3 0.0
23/05:30pm 20.2 18.2 7.3 43 6.7 WSW 7 9 4 5 1014.8 - 0.0
23/05:00pm 21.3 17.7 5.1 34 8.1 W 13 17 7 9 1014.5 - 0.0
23/04:30pm 21.7 18.1 4.9 33 8.4 W 13 19 7 10 1014.5 - 0.0
23/04:00pm 22.0 19.3 5.4 34 8.4 W 9 13 5 7 1014.4 - 0.0
23/03:30pm 21.8 18.5 4.8 33 8.5 WNW 11 19 6 10 1014.3 - 0.0
23/03:00pm 21.6 17.9 4.2 32 8.6 W 13 17 7 9 1014.5 1014.8 0.0
23/02:30pm 21.4 17.7 4.3 32 8.4 WSW 13 22 7 12 1014.5 - 0.0
23/02:00pm 21.2 17.3 3.2 30 8.7 WSW 13 15 7 8 1014.5 - 0.0
23/01:30pm 21.0 17.2 3.8 32 8.4 SW 13 19 7 10 1014.9 - 0.0
23/01:00pm 20.9 17.7 5.0 35 7.9 SW 11 19 6 10 1015.2 - 0.0
23/12:30pm 20.6 16.9 4.5 34 7.9 SSW 13 22 7 12 1015.6 - 0.0
23/12:00pm 20.3 15.9 4.7 36 7.7 SW 17 26 9 14 1016.1 1016.4 0.0
23/11:30am 20.0 15.6 4.5 36 7.6 SSW 17 26 9 14 1016.2 - 0.0
23/11:00am 20.1 16.1 6.6 41 6.9 SSW 17 24 9 13 1016.5 - 0.0
23/10:30am 20.1 15.5 5.6 38 7.3 S 19 26 10 14 1016.5 - 0.0
23/10:00am 19.5 15.5 6.8 43 6.5 SW 17 24 9 13 1016.4 - 0.0
23/09:30am 19.6 16.3 9.4 51 5.5 SSW 17 26 9 14 1016.3 - 0.0
23/09:00am 18.9 16.6 10.4 57 4.6 SSW 13 19 7 10 1015.9 1016.2 0.0
23/08:30am 18.4 16.8 12.8 70 3.2 SW 13 17 7 9 1015.7 - 0.0
23/08:00am 17.4 18.8 15.3 87 1.2 WSW 2 7 1 4 1015.2 - 0.0
23/07:30am 16.1 16.7 15.2 94 0.5 W 6 9 3 5 1014.9 - 0.0
23/07:00am 15.9 16.8 15.1 95 0.5 W 4 6 2 3 1014.8 - 0.0
23/06:30am 16.8 17.4 15.8 94 0.6 WNW 7 7 4 4 1014.3 - 0.0
23/06:00am 17.5 18.2 16.2 92 0.8 W 7 9 4 5 1013.7 1014.0 0.0
23/05:30am 18.5 17.0 16.2 86 1.4 W 19 37 10 20 1013.4 - 0.0
23/05:00am 17.9 17.5 16.3 90 1.0 NNW 13 17 7 9 1012.4 - 0.0
23/04:30am 18.0 17.7 16.4 90 1.0 NNW 13 15 7 8 1012.3 - 0.0
23/04:00am 18.2 17.9 16.5 90 1.0 NNW 13 15 7 8 1012.4 - 0.0
23/03:30am 18.5 18.3 16.6 89 1.2 NNW 13 13 7 7 1012.4 - 0.0
23/03:00am 18.6 18.7 16.6 88 1.2 NNW 11 15 6 8 1012.5 1012.7 0.0
23/02:30am 18.7 18.8 16.6 87 1.3 NNW 11 15 6 8 1012.7 - 0.0
23/02:00am 18.8 19.3 16.6 87 1.3 NNW 9 13 5 7 1013.0 - 0.0
23/01:30am 19.1 19.7 16.7 86 1.5 NNW 9 11 5 6 1013.2 - 0.0
23/01:00am 19.5 20.5 16.8 84 1.7 NNW 7 9 4 5 1013.3 - 0.0
23/12:30am 19.6 20.2 16.7 83 1.8 NW 9 9 5 5 1013.5 - 0.0
23/12:00am 20.3 20.5 16.7 80 2.2 NW 11 15 6 8 1013.5 1013.8 0.0
 
Date/Time
EST
Temp
°C
App
Temp
°C
Dew
Point
°C
Rel
Hum
%
Delta-T
°C
Wind Press
QNH
hPa
Press
MSL
hPa
Rain since
9am
mm
Dir  Spd
km/h
Gust
km/h
Spd
kts
Gust
kts
22/11:30pm 20.6 20.4 16.6 78 2.5 NNW 13 15 7 8 1013.4 - 0.0
22/11:00pm 20.9 20.7 16.6 76 2.6 NNW 13 17 7 9 1013.4 - 0.0
22/10:30pm 21.2 20.5 16.4 74 2.9 NNW 15 17 8 9 1013.3 - 0.0
22/10:00pm 21.4 20.7 16.4 73 3.1 NNW 15 17 8 9 1013.2 - 0.0
22/09:30pm 21.7 21.3 16.3 71 3.3 NNW 13 17 7 9 1013.3 - 0.0
22/09:00pm 22.2 21.8 16.2 69 3.7 NNW 13 17 7 9 1013.2 1013.5 0.0
22/08:30pm 22.8 22.0 16.2 66 4.1 NNW 15 19 8 10 1013.1 - 0.0
22/08:00pm 23.0 22.2 16.2 65 4.2 NNW 15 19 8 10 1013.1 - 0.0
22/07:30pm 23.6 22.3 15.9 62 4.7 N 17 22 9 12 1012.9 - 0.0
22/07:00pm 23.5 22.6 15.9 62 4.7 N 15 17 8 9 1012.7 - 0.0
22/06:30pm 24.0 23.5 15.8 60 5.0 NNW 13 17 7 9 1012.7 - 0.0
22/06:00pm 24.7 23.2 15.4 56 5.7 N 17 24 9 13 1012.4 1012.6 0.0
22/05:30pm 25.4 23.5 15.2 53 6.2 NNW 19 26 10 14 1012.4 - 0.0
22/05:00pm 26.3 23.9 15.4 51 6.7 NNW 22 33 12 18 1012.1 - 0.0
22/04:30pm 26.8 24.8 15.5 50 7.0 NNW 20 28 11 15 1012.1 - 0.0
22/04:00pm 27.2 25.1 15.3 48 7.3 NW 20 30 11 16 1012.2 - 0.0
22/03:30pm 27.2 25.2 15.6 49 7.2 NW 20 30 11 16 1012.3 - 0.0
22/03:00pm 26.9 24.7 15.9 51 6.8 NNW 22 33 12 18 1012.6 1012.8 0.0
22/02:30pm 26.2 23.9 15.8 52 6.4 NW 22 30 12 16 1012.9 - 0.0
22/02:00pm 26.5 24.2 15.7 51 6.7 NW 22 37 12 20 1013.2 - 0.0
22/01:30pm 26.9 25.2 15.8 50 6.9 NNW 19 28 10 15 1013.6 - 0.0
22/01:00pm 26.6 24.3 16.7 54 6.2 NNW 24 32 13 17 1014.0 - 0.0
22/12:30pm 25.6 24.4 17.4 60 5.2 NW 20 28 11 15 1014.7 - 0.0
22/12:00pm 25.1 24.5 18.4 66 4.3 NNW 19 28 10 15 1015.4 1015.6 0.0
22/11:30am 25.2 24.3 18.3 65 4.4 NNW 20 28 11 15 1015.8 - 0.0
22/11:00am 24.5 22.7 17.9 66 4.2 NNW 24 30 13 16 1016.0 - 0.0
22/10:30am 24.0 22.2 17.8 68 3.9 NNW 24 32 13 17 1016.3 - 0.0
22/10:00am 23.7 23.8 18.4 72 3.4 N 15 22 8 12 1016.5 - 0.0
22/09:30am 22.2 22.7 18.4 79 2.4 N 13 20 7 11 1016.8 - 0.0
22/09:00am 20.5 20.9 18.2 87 1.4 N 13 17 7 9 1016.8 1017.1 0.0
22/08:30am 19.2 19.5 17.8 92 0.9 N 13 17 7 9 1016.9 - 0.0
22/08:00am 18.4 19.4 17.7 96 0.4 NNE 9 13 5 7 1016.8 - 0.0
22/07:30am 18.0 19.5 17.5 97 0.3 N 6 7 3 4 1016.6 - 0.0
22/07:00am 17.6 18.4 17.2 97 0.2 N 9 9 5 5 1016.4 - 0.0
22/06:30am 18.0 18.9 17.6 97 0.2 NNE 9 11 5 6 1016.4 - 0.0
22/06:00am 18.0 18.9 17.6 97 0.2 NNE 9 11 5 6 1016.2 1016.5 0.0
22/05:30am 17.9 18.8 17.5 97 0.2 NNE 9 13 5 7 1016.0 - 0.0
22/05:00am 18.0 18.6 17.7 98 0.2 NNE 11 13 6 7 1015.8 - 0.0
22/04:30am 18.0 19.9 17.7 98 0.2 NNE 4 9 2 5 1015.9 - 0.0
22/04:00am 18.1 19.7 17.8 98 0.2 NNE 6 9 3 5 1016.0 - 0.0
22/03:30am 18.2 19.6 17.8 97 0.2 N 7 7 4 4 1016.2 - 0.0
22/03:00am 18.6 20.3 18.0 96 0.4 N 6 7 3 4 1016.4 1016.7 0.0
22/02:30am 18.9 20.5 18.2 96 0.4 N 7 9 4 5 1016.6 - 0.0
22/02:00am 18.7 21.6 18.1 96 0.4 CALM 0 0 0 0 1016.8 - 0.0
22/01:30am 18.5 21.3 17.9 96 0.4 CALM 0 0 0 0 1017.1 - 0.0
22/01:00am 18.5 21.3 17.9 96 0.4 CALM 0 0 0 0 1017.4 - 0.0
22/12:30am 18.4 20.4 17.9 97 0.3 WSW 4 11 2 6 1017.3 - 0.0
22/12:00am 18.2 20.5 17.7 97 0.3 E 2 6 1 3 1017.3 1017.6 0.0
 
Date/Time
EST
Temp
°C
App
Temp
°C
Dew
Point
°C
Rel
Hum
%
Delta-T
°C
Wind Press
QNH
hPa
Press
MSL
hPa
Rain since
9am
mm
Dir  Spd
km/h
Gust
km/h
Spd
kts
Gust
kts
21/11:30pm 18.0 20.6 17.4 96 0.4 CALM 0 0 0 0 1017.6 - 0.0
21/11:00pm 18.5 21.3 17.9 96 0.4 CALM 0 0 0 0 1017.5 - 0.0
21/10:30pm 18.2 20.9 17.7 97 0.3 CALM 0 0 0 0 1017.5 - 0.0
21/10:00pm 18.6 21.4 17.9 96 0.4 CALM 0 0 0 0 1017.3 - 0.0
21/09:30pm 18.7 20.1 17.9 95 0.5 SE 7 9 4 5 1017.3 - 0.0
21/09:00pm 19.0 21.9 18.1 94 0.6 CALM 0 0 0 0 1017.1 1017.4 0.0
21/08:30pm 19.5 22.4 18.3 93 0.8 CALM 0 0 0 0 1017.0 - 0.0
21/08:00pm 20.1 23.2 18.6 91 0.9 CALM 0 0 0 0 1016.8 - 0.0
21/07:30pm 20.6 23.0 18.7 89 1.2 ESE 4 7 2 4 1016.6 - 0.0
21/07:00pm 20.9 23.7 18.9 88 1.3 ESE 2 7 1 4 1016.5 - 0.0
21/06:30pm 21.6 24.9 19.0 85 1.7 CALM 0 0 0 0 1016.4 - 0.0
21/06:00pm 22.5 25.9 19.4 82 2.0 CALM 0 0 0 0 1016.3 1016.6 0.0
21/05:30pm 24.0 27.4 19.3 75 3.0 CALM 0 0 0 0 1016.1 - 0.0
21/05:00pm 24.8 28.0 18.8 69 3.9 CALM 0 0 0 0 1016.1 - 0.0

Other Formats:

Comma delimited format used in spreadsheet applications
http://www.bom.gov.au/fwo/IDQ60801/IDQ60801.94510.axf

JavaScript Object Notation format (JSON) in row-major order
http://www.bom.gov.au/fwo/IDQ60801/IDQ60801.94510.json